Low Mountain, Arizona
Current Conditions -  °F | °C
As of 2:53 AM on Thursday 18 Dec 2014 (Local Time) from KRQE Reporting Station
Overcast Overcast  
Wind Chill: -1°   Ceiling: 5500
Heat Index: -1°   Visibility: 10mi
Dew Point: -3°   Wind: 3mph
Humidity: 85%   Direction: 80°E
Pressure: 30.1"   Gusts: NA
Location:  36.1012°N, 109.584°W
Report Text: KRQE 180953Z AUTO 08003KT 10SM FEW014 OVC055 M01/M03 A3010 RMK AO2 SNE0855 SLP172 P0000 T10061028 TSNO
Loading
Personal Weather Stations






























Interactive Weather Map New forecast layout! Learn more

10-Day Weather Forecast

Advertisements
Track Severe Weather on mobile